KBCE

Bryce Canyon Airport

Bryce Canyon, Utah, USA
METAR KBCE 191453Z AUTO 27008KT 10SM CLR M12/M18 A3028 RMK AO2 SLP293 T11171183 51008
Observed Flight Rules
Nov-19 @ 14:53 UTC (48 minutes ago) Visual Flight Rules
Wind Visibility Clouds
270° at 8 knots 10 miles
  • Clear skies
Temperatures Readings
Current -12°C / 10°F
Dewpoint -18°C / -0°F
Humidity 61%
Altimeter 30.28" Hg
Pressure 1029.3 hPa
Elevation 2312
METAR KBCE 191453Z AUTO 27008KT 10SM CLR M12/M18 A3028 RMK AO2 SLP293 T11171183 51008
Observed Flight Rules
Nov-19 @ 14:53 UTC
(48 minutes ago)
VFR
Wind Visibility
270° at 8 knots 10 miles
Clouds
  • Clear skies
Temperature Dewpoint
-12°C / 10°F -18°C / -0°F
Humidity Altimeter Pressure
61% 30.28" Hg 1029.3 hPa